createdAt,value
2022-09-10T00:00:54.321Z,100096.38
2022-09-10T00:03:56.624Z,100095.38
2022-09-10T00:06:58.457Z,100089.69
2022-09-10T00:10:00.014Z,100093.25
2022-09-10T00:13:01.571Z,100084.97
2022-09-10T00:16:06.358Z,100089.22
2022-09-10T00:19:10.261Z,100089.94
2022-09-10T00:22:13.259Z,100086.09
2022-09-10T00:25:15.270Z,100090.63
2022-09-10T00:28:16.996Z,100085.22
2022-09-10T00:31:20.479Z,100088.78
2022-09-10T00:34:22.081Z,100087.94
2022-09-10T00:37:23.625Z,100093.34
2022-09-10T00:40:25.512Z,100093.47
2022-09-10T00:43:27.122Z,100098.03
2022-09-10T00:46:47.566Z,100101.31
2022-09-10T00:49:55.555Z,100100.44
2022-09-10T00:53:02.582Z,100096.75
2022-09-10T00:56:05.246Z,100095.03
2022-09-10T00:59:09.926Z,100095.91
2022-09-10T01:02:12.189Z,100093.88
2022-09-10T01:05:15.130Z,100093.88
2022-09-10T01:08:18.493Z,100096.44
2022-09-10T01:11:56.201Z,100099.28
2022-09-10T01:15:03.988Z,100102.84
2022-09-10T01:18:13.185Z,100096.56
2022-09-10T01:21:20.778Z,100098.84
2022-09-10T01:24:59.176Z,100101.41
2022-09-10T01:28:08.849Z,100106.41
2022-09-10T01:31:24.495Z,100107.38
2022-09-10T01:34:29.728Z,100100.44
2022-09-10T01:37:35.003Z,100101.56
2022-09-10T01:40:37.300Z,100093.47
2022-09-10T01:43:43.281Z,100099.03
2022-09-10T01:46:54.734Z,100097.06
2022-09-10T01:50:14.936Z,100097.19
2022-09-10T01:53:43.043Z,100095.50
2022-09-10T01:57:19.445Z,100093.06
2022-09-10T02:00:22.278Z,100096.91
2022-09-10T02:03:26.222Z,100090.53
2022-09-10T02:06:30.619Z,100091.38
2022-09-10T02:09:34.040Z,100090.97
2022-09-10T02:12:36.900Z,100093.81
2022-09-10T02:15:57.478Z,100092.00
2022-09-10T02:19:02.374Z,100087.44
2022-09-10T02:22:05.791Z,100086.44
2022-09-10T02:25:09.857Z,100094.53
2022-09-10T02:28:13.236Z,100097.53
2022-09-10T02:31:15.146Z,100100.94
2022-09-10T02:34:16.924Z,100095.22
2022-09-10T02:37:21.596Z,100101.34
2022-09-10T02:40:23.186Z,100103.72
2022-09-10T02:43:26.348Z,100106.84
2022-09-10T02:46:31.257Z,100102.28
2022-09-10T02:49:34.627Z,100111.22
2022-09-10T02:52:37.473Z,100108.84
2022-09-10T02:55:41.299Z,100106.44
2022-09-10T02:58:43.147Z,100103.72
2022-09-10T03:01:45.061Z,100116.09
2022-09-10T03:04:46.735Z,100121.63
2022-09-10T03:07:48.606Z,100122.50
2022-09-10T03:10:50.889Z,100127.59
2022-09-10T03:13:52.546Z,100124.91
2022-09-10T03:16:55.018Z,100122.03
2022-09-10T03:19:59.282Z,100126.59
2022-09-10T03:23:00.885Z,100129.28
2022-09-10T03:26:04.391Z,100133.00
2022-09-10T03:29:06.655Z,100130.44
2022-09-10T03:32:13.204Z,100127.72
2022-09-10T03:35:15.783Z,100125.88
2022-09-10T03:38:17.451Z,100122.19
2022-09-10T03:41:19.914Z,100125.03
2022-09-10T03:44:22.561Z,100125.88
2022-09-10T03:47:25.130Z,100120.66
2022-09-10T03:50:27.827Z,100130.75
2022-09-10T03:53:29.501Z,100127.19
2022-09-10T03:56:32.792Z,100123.78
2022-09-10T03:59:40.146Z,100129.31
2022-09-10T04:02:46.097Z,100135.88
2022-09-10T04:05:48.720Z,100136.44
2022-09-10T04:08:52.722Z,100129.31
2022-09-10T04:11:56.173Z,100128.47
2022-09-10T04:14:58.697Z,100125.78
2022-09-10T04:18:01.159Z,100136.44
2022-09-10T04:21:03.181Z,100126.34
2022-09-10T04:24:05.132Z,100133.56
2022-09-10T04:27:06.714Z,100136.28
2022-09-10T04:30:10.148Z,100136.28
2022-09-10T04:33:14.216Z,100130.19
2022-09-10T04:36:17.197Z,100135.19
2022-09-10T04:39:19.647Z,100139.56
2022-09-10T04:42:23.965Z,100145.09
2022-09-10T04:45:27.426Z,100146.25
2022-09-10T04:48:29.235Z,100145.41
2022-09-10T04:51:31.064Z,100146.41
2022-09-10T04:54:37.486Z,100146.41
2022-09-10T04:57:39.404Z,100145.41
2022-09-10T05:00:41.184Z,100152.81
2022-09-10T05:03:43.594Z,100142.47
2022-09-10T05:06:50.143Z,100150.69
2022-09-10T05:09:51.878Z,100141.75
2022-09-10T05:12:54.380Z,100157.78
2022-09-10T05:15:59.391Z,100153.81
2022-09-10T05:19:01.266Z,100152.66
2022-09-10T05:22:06.842Z,100146.97
2022-09-10T05:25:09.982Z,100150.91
2022-09-10T05:28:12.887Z,100156.91
2022-09-10T05:31:16.596Z,100159.16
2022-09-10T05:34:19.158Z,100160.72
2022-09-10T05:37:20.778Z,100159.41
2022-09-10T05:40:22.921Z,100159.09
2022-09-10T05:43:27.432Z,100164.34
2022-09-10T05:46:30.959Z,100162.19
2022-09-10T05:49:37.211Z,100154.66
2022-09-10T05:52:40.188Z,100159.75
2022-09-10T05:55:43.945Z,100150.22
2022-09-10T05:58:45.600Z,100159.41
2022-09-10T06:01:51.446Z,100148.59
2022-09-10T06:04:54.944Z,100158.41
2022-09-10T06:07:57.752Z,100148.16
2022-09-10T06:11:02.545Z,100152.81
2022-09-10T06:14:09.159Z,100157.91
2022-09-10T06:17:11.190Z,100155.31
2022-09-10T06:20:15.685Z,100161.84
2022-09-10T06:23:19.217Z,100150.56
2022-09-10T06:26:22.036Z,100157.22
2022-09-10T06:29:27.636Z,100146.78
2022-09-10T06:32:29.482Z,100159.03
2022-09-10T06:35:32.406Z,100150.13
2022-09-10T06:38:35.288Z,100154.72
2022-09-10T06:41:36.994Z,100167.78
2022-09-10T06:44:48.470Z,100158.19
2022-09-10T06:51:33.965Z,100155.81
2022-09-10T06:54:37.727Z,100154.63
2022-09-10T06:57:53.808Z,100159.06
2022-09-10T07:00:57.204Z,100159.81
2022-09-10T07:04:01.032Z,100168.31
2022-09-10T07:07:05.951Z,100165.06
2022-09-10T07:10:08.407Z,100181.69
2022-09-10T07:13:10.993Z,100187.06
2022-09-10T07:16:18.479Z,100183.78
2022-09-10T07:19:20.893Z,100187.03
2022-09-10T07:22:23.046Z,100194.88
2022-09-10T07:25:26.326Z,100197.31
2022-09-10T07:28:39.181Z,100195.25
2022-09-10T07:31:42.163Z,100200.78
2022-09-10T07:34:52.265Z,100195.47
2022-09-10T07:37:55.865Z,100204.56
2022-09-10T07:41:01.099Z,100203.16
2022-09-10T07:44:03.001Z,100208.59
2022-09-10T07:47:12.050Z,100209.13
2022-09-10T07:50:14.854Z,100213.91
2022-09-10T07:53:17.867Z,100216.84
2022-09-10T07:56:23.098Z,100214.78
2022-09-10T07:59:25.244Z,100217.34
2022-09-10T08:02:32.499Z,100228.88
2022-09-10T08:05:39.546Z,100223.94
2022-09-10T08:08:42.926Z,100231.38
2022-09-10T08:11:46.837Z,100232.06
2022-09-10T08:14:52.288Z,100237.00
2022-09-10T08:17:55.602Z,100238.50
2022-09-10T08:20:57.462Z,100240.47
2022-09-10T08:24:02.733Z,100235.91
2022-09-10T08:27:06.705Z,100247.94
2022-09-10T08:30:09.059Z,100249.88
2022-09-10T08:33:12.323Z,100250.94
2022-09-10T08:36:16.913Z,100253.22
2022-09-10T08:39:18.568Z,100247.03
2022-09-10T08:42:26.879Z,100256.91
2022-09-10T08:45:32.814Z,100251.78
2022-09-10T08:48:39.777Z,100253.03
2022-09-10T08:51:48.594Z,100254.38
2022-09-10T08:54:56.491Z,100252.38
2022-09-10T08:57:59.555Z,100251.16
2022-09-10T09:01:05.125Z,100250.63
2022-09-10T09:04:18.113Z,100250.84
2022-09-10T09:07:21.769Z,100248.94
2022-09-10T09:10:45.084Z,100248.78
2022-09-10T09:13:52.083Z,100252.53
2022-09-10T09:17:06.239Z,100255.28
2022-09-10T09:20:42.935Z,100250.22
2022-09-10T09:24:13.083Z,100255.50
2022-09-10T09:27:22.752Z,100252.00
2022-09-10T09:30:33.455Z,100259.66
2022-09-10T09:33:38.837Z,100260.00
2022-09-10T09:36:46.867Z,100254.81
2022-09-10T09:40:14.572Z,100257.22
2022-09-10T09:43:27.941Z,100247.72
2022-09-10T09:46:29.635Z,100250.97
2022-09-10T09:49:35.511Z,100246.06
2022-09-10T09:52:38.565Z,100243.69
2022-09-10T09:55:43.990Z,100245.41
2022-09-10T09:58:50.239Z,100251.34
2022-09-10T10:01:52.933Z,100240.81
2022-09-10T10:05:03.648Z,100245.19
2022-09-10T10:08:05.814Z,100242.06
2022-09-10T10:11:09.367Z,100244.97
2022-09-10T10:14:31.154Z,100244.97
2022-09-10T10:17:41.117Z,100249.88
2022-09-10T10:20:42.771Z,100245.69
2022-09-10T10:23:44.651Z,100229.75
2022-09-10T10:26:48.651Z,100239.44
2022-09-10T10:30:17.434Z,100232.78
2022-09-10T10:33:31.370Z,100232.13
2022-09-10T10:37:00.077Z,100226.66
2022-09-10T10:40:30.323Z,100231.22
2022-09-10T10:43:44.328Z,100235.13
2022-09-10T10:46:53.978Z,100236.81
2022-09-10T10:50:17.052Z,100230.56
2022-09-10T10:53:28.948Z,100236.50
2022-09-10T10:56:50.711Z,100233.28
2022-09-10T10:59:57.218Z,100232.91
2022-09-10T11:03:10.703Z,100231.88
2022-09-10T11:06:23.431Z,100232.34
2022-09-10T11:09:31.264Z,100229.38
2022-09-10T11:12:44.127Z,100229.03
2022-09-10T11:15:59.379Z,100232.28
2022-09-10T11:19:09.025Z,100223.53
2022-09-10T11:22:26.035Z,100219.34
2022-09-10T11:25:34.163Z,100220.59
2022-09-10T11:28:56.689Z,100218.06
2022-09-10T11:32:06.481Z,100224.84
2022-09-10T11:35:22.108Z,100217.69
2022-09-10T11:38:41.125Z,100224.84
2022-09-10T11:41:46.324Z,100215.16
2022-09-10T11:44:56.016Z,100221.28
2022-09-10T11:48:18.600Z,100210.72
2022-09-10T11:51:30.539Z,100207.25
2022-09-10T11:54:35.531Z,100211.66
2022-09-10T11:58:16.492Z,100209.41
2022-09-10T12:01:49.458Z,100211.50
2022-09-10T12:04:56.807Z,100212.16
2022-09-10T12:08:23.004Z,100208.59
2022-09-10T12:11:44.279Z,100207.25
2022-09-10T12:14:46.137Z,100203.22
2022-09-10T12:17:56.417Z,100197.25
2022-09-10T12:21:02.631Z,100209.78
2022-09-10T12:24:23.348Z,100209.25
2022-09-10T12:28:00.636Z,100207.97
2022-09-10T12:31:03.309Z,100209.47
2022-09-10T12:34:17.226Z,100207.53
2022-09-10T12:37:24.431Z,100210.09
2022-09-10T12:40:26.099Z,100214.38
2022-09-10T12:43:40.220Z,100203.97
2022-09-10T12:46:45.302Z,100205.34
2022-09-10T12:49:54.831Z,100200.78
2022-09-10T12:53:25.103Z,100195.81
2022-09-10T12:57:03.193Z,100196.28
2022-09-10T13:00:13.992Z,100193.09
2022-09-10T13:03:19.882Z,100195.81
2022-09-10T13:06:35.865Z,100189.84
2022-09-10T13:09:39.650Z,100187.19
2022-09-10T13:12:44.195Z,100184.03
2022-09-10T13:15:52.485Z,100183.13
2022-09-10T13:19:14.070Z,100185.66
2022-09-10T13:22:52.566Z,100188.41
2022-09-10T13:26:33.647Z,100187.09
2022-09-10T13:29:38.496Z,100186.31
2022-09-10T13:32:47.812Z,100202.63
2022-09-10T13:36:05.620Z,100201.13
2022-09-10T13:39:50.755Z,100198.13
2022-09-10T13:43:21.607Z,100199.31
2022-09-10T13:46:46.686Z,100192.22
2022-09-10T13:50:00.557Z,100180.19
2022-09-10T13:53:08.230Z,100189.00
2022-09-10T13:56:21.283Z,100197.84
2022-09-10T13:59:30.806Z,100196.13
2022-09-10T14:02:50.709Z,100192.56
2022-09-10T14:05:57.328Z,100204.44
2022-09-10T14:09:05.039Z,100204.22
2022-09-10T14:12:08.404Z,100201.81
2022-09-10T14:15:17.011Z,100201.13
2022-09-10T14:18:20.129Z,100205.53
2022-09-10T14:21:27.932Z,100204.34
2022-09-10T14:24:33.625Z,100204.16
2022-09-10T14:27:39.015Z,100198.91
2022-09-10T14:30:40.621Z,100202.34
2022-09-10T14:33:42.220Z,100195.84
2022-09-10T14:36:43.850Z,100200.44
2022-09-10T14:39:45.520Z,100191.63
2022-09-10T14:42:49.447Z,100191.63
2022-09-10T14:45:51.632Z,100191.81
2022-09-10T14:49:00.090Z,100195.53
2022-09-10T14:52:05.587Z,100201.69
2022-09-10T14:55:07.439Z,100196.72
2022-09-10T14:58:11.535Z,100190.28
2022-09-10T15:01:13.305Z,100190.28
2022-09-10T15:04:23.551Z,100190.28
2022-09-10T15:07:25.185Z,100188.59
2022-09-10T15:10:26.808Z,100189.13
2022-09-10T15:13:31.195Z,100190.50
2022-09-10T15:16:36.184Z,100188.13
2022-09-10T15:19:43.110Z,100187.09
2022-09-10T15:22:47.436Z,100185.03
2022-09-10T15:25:50.933Z,100187.75
2022-09-10T15:28:52.823Z,100186.59
2022-09-10T15:31:59.364Z,100188.78
2022-09-10T15:35:01.231Z,100197.16
2022-09-10T15:38:02.917Z,100195.78
2022-09-10T15:41:13.162Z,100191.53
2022-09-10T15:44:14.994Z,100186.81
2022-09-10T15:47:16.581Z,100188.31
2022-09-10T15:50:18.228Z,100198.03
2022-09-10T15:53:20.678Z,100195.31
2022-09-10T15:56:27.009Z,100202.63
2022-09-10T15:59:28.634Z,100199.53
2022-09-10T16:02:30.249Z,100198.16
2022-09-10T16:05:35.407Z,100200.88
2022-09-10T16:08:37.057Z,100207.50
2022-09-10T16:11:40.957Z,100203.25
2022-09-10T16:14:44.387Z,100204.97
2022-09-10T16:17:46.039Z,100212.09
2022-09-10T16:20:47.643Z,100215.31
2022-09-10T16:23:51.688Z,100223.97
2022-09-10T16:26:53.319Z,100213.47
2022-09-10T16:29:54.939Z,100212.97
2022-09-10T16:32:56.893Z,100215.47
2022-09-10T16:36:04.230Z,100216.81
2022-09-10T16:39:12.203Z,100222.59
2022-09-10T16:42:13.978Z,100221.56
2022-09-10T16:45:15.657Z,100228.00
2022-09-10T16:48:17.354Z,100232.25
2022-09-10T16:51:20.838Z,100241.72
2022-09-10T16:54:22.957Z,100241.38
2022-09-10T16:57:24.600Z,100247.81
2022-09-10T17:00:27.005Z,100242.41
2022-09-10T17:03:29.955Z,100236.13
2022-09-10T17:06:32.017Z,100245.97
2022-09-10T17:09:36.063Z,100244.28
2022-09-10T17:12:40.029Z,100239.16
2022-09-10T17:15:43.158Z,100245.75
2022-09-10T17:18:45.058Z,100243.38
2022-09-10T17:21:51.142Z,100247.28
2022-09-10T17:24:53.924Z,100240.66
2022-09-10T17:27:55.694Z,100241.81
2022-09-10T17:30:58.115Z,100242.47
2022-09-10T17:33:59.748Z,100251.91
2022-09-10T17:37:01.719Z,100244.28
2022-09-10T17:40:08.689Z,100241.03
2022-09-10T17:43:13.257Z,100252.22
2022-09-10T17:46:22.695Z,100255.41
2022-09-10T17:49:24.618Z,100259.31
2022-09-10T17:52:26.670Z,100260.63
2022-09-10T17:55:34.543Z,100261.78
2022-09-10T17:58:39.130Z,100261.28
2022-09-10T18:01:43.309Z,100274.28
2022-09-10T18:04:49.071Z,100277.19
2022-09-10T18:07:50.639Z,100280.50
2022-09-10T18:11:02.156Z,100284.75
2022-09-10T18:14:04.252Z,100284.38
2022-09-10T18:17:05.926Z,100291.84
2022-09-10T18:20:07.935Z,100299.44
2022-09-10T18:23:09.789Z,100295.50
2022-09-10T18:26:14.360Z,100303.63
2022-09-10T18:29:20.784Z,100309.38
2022-09-10T18:32:23.244Z,100318.81
2022-09-10T18:35:27.578Z,100317.28
2022-09-10T18:38:29.372Z,100315.03
2022-09-10T18:41:33.286Z,100323.47
2022-09-10T18:44:39.062Z,100321.09
2022-09-10T18:47:44.845Z,100332.38
2022-09-10T18:50:47.327Z,100320.19
2022-09-10T18:53:53.120Z,100334.56
2022-09-10T18:56:55.862Z,100333.34
2022-09-10T18:59:57.413Z,100338.38
2022-09-10T19:02:59.078Z,100336.81
2022-09-10T19:06:05.304Z,100341.34
2022-09-10T19:09:10.806Z,100356.06
2022-09-10T19:12:18.579Z,100349.69
2022-09-10T19:15:22.424Z,100359.97
2022-09-10T19:18:24.323Z,100358.25
2022-09-10T19:21:27.952Z,100362.84
2022-09-10T19:24:54.009Z,100366.69
2022-09-10T19:27:55.992Z,100370.56
2022-09-10T19:31:03.127Z,100379.84
2022-09-10T19:34:09.329Z,100385.72
2022-09-10T19:37:11.269Z,100378.03
2022-09-10T19:40:13.117Z,100387.31
2022-09-10T19:43:15.671Z,100380.19
2022-09-10T19:46:19.425Z,100382.19
2022-09-10T19:49:23.388Z,100388.22
2022-09-10T19:52:25.594Z,100396.63
2022-09-10T19:55:27.186Z,100395.06
2022-09-10T19:58:28.801Z,100397.25
2022-09-10T20:01:33.086Z,100395.38
2022-09-10T20:04:36.949Z,100402.66
2022-09-10T20:07:39.585Z,100405.66
2022-09-10T20:10:49.603Z,100406.38
2022-09-10T20:13:57.017Z,100408.50
2022-09-10T20:16:59.280Z,100408.50
2022-09-10T20:20:03.853Z,100399.69
2022-09-10T20:23:05.463Z,100402.38
2022-09-10T20:26:15.886Z,100403.81
2022-09-10T20:29:19.305Z,100399.53
2022-09-10T20:32:21.439Z,100399.53
2022-09-10T20:35:23.084Z,100400.69
2022-09-10T20:38:25.782Z,100397.44
2022-09-10T20:41:31.444Z,100401.13
2022-09-10T20:44:33.146Z,100393.31
2022-09-10T20:47:42.862Z,100398.88
2022-09-10T20:51:00.651Z,100393.75
2022-09-10T20:54:04.478Z,100403.88
2022-09-10T20:57:06.138Z,100399.59
2022-09-10T21:00:08.634Z,100406.88
2022-09-10T21:03:10.206Z,100399.06
2022-09-10T21:06:14.092Z,100402.91
2022-09-10T21:09:15.802Z,100406.22
2022-09-10T21:12:17.735Z,100407.94
2022-09-10T21:15:19.503Z,100401.28
2022-09-10T21:18:21.154Z,100407.81
2022-09-10T21:21:28.153Z,100413.53
2022-09-10T21:24:29.786Z,100421.94
2022-09-10T21:27:32.105Z,100417.91
2022-09-10T21:30:33.669Z,100418.19
2022-09-10T21:33:36.631Z,100421.19
2022-09-10T21:36:40.110Z,100423.19
2022-09-10T21:39:41.789Z,100418.22
2022-09-10T21:42:44.256Z,100417.78
2022-09-10T21:45:46.347Z,100420.94
2022-09-10T21:48:48.036Z,100420.66
2022-09-10T21:51:50.197Z,100427.19
2022-09-10T21:54:51.798Z,100434.59
2022-09-10T21:57:53.437Z,100422.81
2022-09-10T22:00:59.995Z,100436.59
2022-09-10T22:04:02.001Z,100443.25
2022-09-10T22:07:04.667Z,100437.44
2022-09-10T22:10:06.841Z,100434.84
2022-09-10T22:13:09.212Z,100448.50
2022-09-10T22:16:13.888Z,100455.06
2022-09-10T22:19:19.392Z,100461.72
2022-09-10T22:22:21.046Z,100467.69
2022-09-10T22:25:25.412Z,100461.69
2022-09-10T22:28:27.099Z,100461.13
2022-09-10T22:31:33.618Z,100461.69
2022-09-10T22:34:36.566Z,100461.84
2022-09-10T22:37:38.188Z,100469.09
2022-09-10T22:40:39.853Z,100467.53
2022-09-10T22:43:42.771Z,100468.78
2022-09-10T22:46:44.520Z,100473.75
2022-09-10T22:49:47.548Z,100482.13
2022-09-10T22:52:49.183Z,100477.00
2022-09-10T22:55:50.885Z,100471.84
2022-09-10T22:58:54.113Z,100479.25
2022-09-10T23:01:55.837Z,100478.66
2022-09-10T23:04:57.488Z,100482.66
2022-09-10T23:07:59.107Z,100488.16
2022-09-10T23:11:19.451Z,100495.69
2022-09-10T23:14:22.076Z,100489.97
2022-09-10T23:17:23.751Z,100496.22
2022-09-10T23:20:27.182Z,100508.00
2022-09-10T23:23:28.758Z,100504.88
2022-09-10T23:26:30.458Z,100506.06
2022-09-10T23:29:32.037Z,100509.63
2022-09-10T23:32:33.739Z,100521.53
2022-09-10T23:35:35.390Z,100514.56
2022-09-10T23:38:37.407Z,100521.97
2022-09-10T23:41:39.606Z,100517.25
2022-09-10T23:44:41.235Z,100521.09
2022-09-10T23:47:42.938Z,100517.53
2022-09-10T23:50:44.903Z,100513.88
2022-09-10T23:53:48.021Z,100515.69
2022-09-10T23:56:49.654Z,100515.00
2022-09-10T23:59:51.306Z,100516.34
